Terminal Aerodrome Forecast
Issued by NWS

Home | Current Version | Previous Version | Graphics & Text | Print | Product List | Glossary On
Versions: 1 2 3 4 5 6 7 8 9 10 11 12 13 14 15 16 17 18 19 20 21 22 23 24
000
FTUS43 KGRB 212100 AAA
TAFCWA
TAF AMD
KCWA 212139Z 2122/2218 15008KT 3SM -SN BR OVC006
      TEMPO 2122/2123 1 1/2SM -SN BR OVC003
     FM212300 15011KT 2SM -SN BR OVC006
     FM221000 13008KT 3SM -FZDZSN BR OVC003
     FM221500 12008KT 5SM -SN BR OVC008=

USA.gov is the U.S. government's official web portal to all federal, state and local government web resources and services.